createdAt,value
2023-01-22T00:02:21.934Z,76.52
2023-01-22T00:07:19.036Z,75.85
2023-01-22T00:12:16.294Z,75.42
2023-01-22T00:17:13.541Z,75.84
2023-01-22T00:22:10.926Z,75.17
2023-01-22T00:27:07.410Z,74.95
2023-01-22T00:32:07.185Z,74.50
2023-01-22T00:37:04.023Z,75.14
2023-01-22T00:42:00.688Z,75.14
2023-01-22T00:46:58.508Z,76.45
2023-01-22T00:51:55.803Z,76.45
2023-01-22T00:56:52.370Z,77.92
2023-01-22T01:01:49.357Z,79.45
2023-01-22T01:06:46.205Z,80.64
2023-01-22T01:11:43.344Z,82.47
2023-01-22T01:16:42.515Z,84.33
2023-01-22T01:21:39.142Z,85.13
2023-01-22T01:26:36.080Z,84.80
2023-01-22T01:31:33.794Z,84.71
2023-01-22T01:36:47.799Z,85.48
2023-01-22T01:41:45.578Z,86.36
2023-01-22T01:46:45.211Z,87.28
2023-01-22T01:51:43.174Z,87.83
2023-01-22T01:56:42.759Z,86.65
2023-01-22T02:01:39.876Z,86.84
2023-01-22T02:06:37.089Z,87.88
2023-01-22T02:11:33.974Z,89.51
2023-01-22T02:16:30.596Z,89.40
2023-01-22T02:21:32.723Z,89.53
2023-01-22T02:26:29.343Z,90.02
2023-01-22T02:31:26.395Z,89.25
2023-01-22T02:36:23.015Z,88.20
2023-01-22T02:41:21.599Z,87.35
2023-01-22T02:46:18.435Z,87.55
2023-01-22T02:51:14.977Z,86.23
2023-01-22T02:56:13.798Z,85.43
2023-01-22T03:01:18.257Z,83.76
2023-01-22T03:06:21.191Z,83.58
2023-01-22T03:11:17.892Z,83.91
2023-01-22T03:16:33.664Z,84.49
2023-01-22T03:21:32.128Z,83.98
2023-01-22T03:26:30.927Z,85.57
2023-01-22T03:31:28.639Z,85.27
2023-01-22T03:36:25.469Z,83.76
2023-01-22T03:41:26.695Z,81.83
2023-01-22T03:46:24.541Z,81.06
2023-01-22T03:51:26.021Z,80.75
2023-01-22T03:56:23.611Z,79.92
2023-01-22T04:01:24.202Z,79.85
2023-01-22T04:06:22.324Z,79.86
2023-01-22T04:11:20.034Z,79.97
2023-01-22T04:16:19.278Z,80.26
2023-01-22T04:21:27.897Z,80.83
2023-01-22T04:26:27.995Z,80.89
2023-01-22T04:31:27.150Z,80.14
2023-01-22T04:36:50.226Z,80.49
2023-01-22T04:41:47.997Z,80.21
2023-01-22T04:46:44.853Z,80.06
2023-01-22T04:51:43.178Z,79.84
2023-01-22T04:56:40.183Z,79.38
2023-01-22T05:01:38.759Z,79.24
2023-01-22T05:06:35.574Z,79.15
2023-01-22T05:11:32.240Z,79.22
2023-01-22T05:16:32.242Z,78.77
2023-01-22T05:21:30.269Z,78.22
2023-01-22T05:26:26.927Z,77.60
2023-01-22T05:31:34.813Z,77.67
2023-01-22T05:36:34.866Z,76.68
2023-01-22T05:41:37.863Z,74.96
2023-01-22T05:46:34.758Z,76.15
2023-01-22T05:51:44.263Z,76.05
2023-01-22T05:56:42.978Z,75.75
2023-01-22T06:01:40.133Z,74.85
2023-01-22T06:06:40.050Z,74.48
2023-01-22T06:11:38.159Z,75.13
2023-01-22T06:16:35.048Z,76.08
2023-01-22T06:21:57.507Z,74.85
2023-01-22T06:27:05.968Z,75.21
2023-01-22T06:32:19.555Z,76.65
2023-01-22T06:37:16.197Z,78.01
2023-01-22T06:42:13.873Z,78.65
2023-01-22T06:47:10.530Z,79.34
2023-01-22T06:52:10.258Z,80.12
2023-01-22T06:57:07.558Z,79.34
2023-01-22T07:02:07.594Z,78.17
2023-01-22T07:07:04.233Z,76.86
2023-01-22T07:12:01.557Z,76.61
2023-01-22T07:17:00.492Z,75.49
2023-01-22T07:21:57.865Z,76.72
2023-01-22T07:26:54.511Z,75.71
2023-01-22T07:31:51.370Z,74.17
2023-01-22T07:36:48.047Z,74.03
2023-01-22T07:41:45.263Z,73.99
2023-01-22T07:46:42.052Z,74.57
2023-01-22T07:51:47.204Z,75.05
2023-01-22T07:56:43.732Z,74.25
2023-01-22T08:01:40.941Z,73.46
2023-01-22T08:06:37.500Z,74.30
2023-01-22T08:11:34.089Z,76.91
2023-01-22T08:16:30.701Z,78.22
2023-01-22T08:21:27.919Z,78.64
2023-01-22T08:26:24.526Z,79.23
2023-01-22T08:31:27.851Z,79.85
2023-01-22T08:36:25.384Z,82.74
2023-01-22T08:41:22.932Z,84.38
2023-01-22T08:46:19.690Z,84.11
2023-01-22T08:51:16.319Z,84.03
2023-01-22T08:56:12.935Z,84.39
2023-01-22T09:01:15.097Z,84.50
2023-01-22T09:06:11.709Z,84.07
2023-01-22T09:11:08.418Z,83.68
2023-01-22T09:16:06.087Z,83.76
2023-01-22T09:21:03.958Z,84.92
2023-01-22T09:26:08.361Z,85.94
2023-01-22T09:31:05.220Z,88.80
2023-01-22T09:36:10.104Z,88.98
2023-01-22T09:41:12.493Z,89.56
2023-01-22T09:46:12.482Z,89.71
2023-01-22T09:51:11.882Z,90.81
2023-01-22T09:56:14.691Z,91.15
2023-01-22T10:01:11.444Z,90.85
2023-01-22T10:06:10.589Z,90.21
2023-01-22T10:11:10.070Z,90.04
2023-01-22T10:16:07.083Z,89.87
2023-01-22T10:21:05.074Z,89.38
2023-01-22T10:26:05.515Z,91.79
2023-01-22T10:31:03.121Z,92.06
2023-01-22T10:35:59.915Z,92.14
2023-01-22T10:40:58.421Z,93.21
2023-01-22T10:45:59.009Z,93.17
2023-01-22T10:51:13.233Z,93.52
2023-01-22T10:56:12.441Z,94.51
2023-01-22T11:01:23.454Z,94.73
2023-01-22T11:06:24.386Z,94.58
2023-01-22T11:11:25.640Z,93.86
2023-01-22T11:16:23.305Z,93.29
2023-01-22T11:21:25.100Z,92.69
2023-01-22T11:26:28.170Z,93.10
2023-01-22T11:31:32.748Z,93.52
2023-01-22T11:36:34.102Z,94.02
2023-01-22T11:41:40.812Z,92.71
2023-01-22T11:46:45.767Z,92.36
2023-01-22T11:51:47.890Z,91.83
2023-01-22T11:56:58.469Z,91.48
2023-01-22T12:02:02.546Z,91.09
2023-01-22T12:07:20.990Z,91.91
2023-01-22T12:12:24.234Z,91.16
2023-01-22T12:17:28.495Z,93.33
2023-01-22T12:22:28.708Z,93.93
2023-01-22T12:27:27.008Z,93.08
2023-01-22T12:32:27.121Z,92.73
2023-01-22T12:37:25.290Z,92.39
2023-01-22T12:42:27.474Z,92.32
2023-01-22T12:47:28.757Z,91.80
2023-01-22T12:52:35.964Z,91.23
2023-01-22T12:57:37.874Z,91.50
2023-01-22T13:02:38.463Z,91.55
2023-01-22T13:07:36.125Z,91.25
2023-01-22T13:12:43.162Z,90.55
2023-01-22T13:17:40.219Z,90.12
2023-01-22T13:22:36.939Z,88.88
2023-01-22T13:27:34.465Z,89.68
2023-01-22T13:32:32.036Z,89.52
2023-01-22T13:37:30.430Z,88.92
2023-01-22T13:42:27.397Z,88.30
2023-01-22T13:47:28.607Z,86.38
2023-01-22T13:52:27.619Z,85.13
2023-01-22T13:57:24.512Z,84.34
2023-01-22T14:02:22.431Z,83.55
2023-01-22T14:07:23.471Z,82.59
2023-01-22T14:12:21.601Z,81.62
2023-01-22T14:17:25.139Z,80.76
2023-01-22T14:22:21.934Z,80.14
2023-01-22T14:27:19.046Z,80.02
2023-01-22T14:32:16.257Z,79.69
2023-01-22T14:37:14.861Z,79.63
2023-01-22T14:42:11.462Z,79.92
2023-01-22T14:47:07.997Z,79.67
2023-01-22T14:52:05.279Z,79.65
2023-01-22T14:57:03.323Z,79.15
2023-01-22T15:02:00.094Z,79.02
2023-01-22T15:06:57.091Z,79.09
2023-01-22T15:11:54.408Z,79.03
2023-01-22T15:16:51.457Z,78.94
2023-01-22T15:21:48.181Z,79.04
2023-01-22T15:26:45.655Z,79.26
2023-01-22T15:31:43.289Z,79.45
2023-01-22T15:36:39.929Z,79.50
2023-01-22T15:41:37.076Z,79.44
2023-01-22T15:46:34.846Z,81.37
2023-01-22T15:51:32.217Z,82.73
2023-01-22T15:56:29.946Z,84.96
2023-01-22T16:01:27.026Z,85.26
2023-01-22T16:06:27.244Z,83.78
2023-01-22T16:11:25.252Z,83.33
2023-01-22T16:16:22.741Z,83.24
2023-01-22T16:21:19.876Z,83.15
2023-01-22T16:26:17.349Z,83.31
2023-01-22T16:31:17.523Z,83.31
2023-01-22T16:36:15.584Z,83.73
2023-01-22T16:41:26.555Z,83.70
2023-01-22T16:46:24.840Z,83.85
2023-01-22T16:51:24.828Z,84.62
2023-01-22T16:56:21.642Z,85.70
2023-01-22T17:01:18.311Z,86.62
2023-01-22T17:06:23.172Z,89.08
2023-01-22T17:11:19.992Z,89.78
2023-01-22T17:16:17.939Z,90.04
2023-01-22T17:21:17.670Z,92.29
2023-01-22T17:26:15.847Z,91.94
2023-01-22T17:31:15.064Z,90.67
2023-01-22T17:36:12.553Z,89.88
2023-01-22T17:41:11.198Z,88.88
2023-01-22T17:46:10.480Z,88.83
2023-01-22T17:51:08.318Z,88.75
2023-01-22T17:56:09.806Z,88.86
2023-01-22T18:01:07.780Z,88.95
2023-01-22T18:06:36.919Z,89.39
2023-01-22T18:11:35.061Z,88.73
2023-01-22T18:16:33.252Z,89.13
2023-01-22T18:21:30.126Z,88.75
2023-01-22T18:26:26.832Z,88.62
2023-01-22T18:31:26.236Z,88.64
2023-01-22T18:36:25.343Z,88.32
2023-01-22T18:41:24.634Z,87.95
2023-01-22T18:46:22.054Z,88.21
2023-01-22T18:51:19.659Z,88.33
2023-01-22T18:56:16.438Z,87.57
2023-01-22T19:01:16.617Z,87.89
2023-01-22T19:06:27.309Z,89.76
2023-01-22T19:11:24.763Z,89.20
2023-01-22T19:16:21.797Z,89.04
2023-01-22T19:21:19.912Z,88.63
2023-01-22T19:26:18.110Z,89.75
2023-01-22T19:31:16.571Z,88.65
2023-01-22T19:36:13.332Z,88.39
2023-01-22T19:41:09.872Z,87.45
2023-01-22T19:46:08.029Z,87.00
2023-01-22T19:51:07.663Z,88.53
2023-01-22T19:56:04.785Z,88.55
2023-01-22T20:01:07.690Z,88.20
2023-01-22T20:06:05.310Z,88.07
2023-01-22T20:11:02.531Z,88.46
2023-01-22T20:16:00.299Z,87.84
2023-01-22T20:20:58.543Z,88.46
2023-01-22T20:26:05.322Z,87.21
2023-01-22T20:31:07.179Z,87.82
2023-01-22T20:36:08.480Z,86.68
2023-01-22T20:41:08.672Z,88.19
2023-01-22T20:46:06.435Z,87.24
2023-01-22T20:51:03.445Z,86.74
2023-01-22T20:56:01.869Z,85.82
2023-01-22T21:01:03.339Z,87.11
2023-01-22T21:06:01.615Z,85.79
2023-01-22T21:10:59.159Z,87.72
2023-01-22T21:15:56.085Z,86.83
2023-01-22T21:20:53.401Z,87.04
2023-01-22T21:25:50.119Z,87.01
2023-01-22T21:30:46.706Z,86.20
2023-01-22T21:35:47.723Z,85.38
2023-01-22T21:40:44.963Z,85.24
2023-01-22T21:46:00.245Z,84.50
2023-01-22T21:50:56.919Z,84.56
2023-01-22T21:55:54.376Z,83.87
2023-01-22T22:00:50.919Z,83.82
2023-01-22T22:05:54.376Z,83.41
2023-01-22T22:10:51.259Z,84.71
2023-01-22T22:15:48.468Z,85.16
2023-01-22T22:20:45.218Z,85.31
2023-01-22T22:25:45.703Z,85.25
2023-01-22T22:30:42.285Z,84.62
2023-01-22T22:35:39.566Z,86.23
2023-01-22T22:40:36.132Z,84.71
2023-01-22T22:45:35.101Z,83.90
2023-01-22T22:50:31.806Z,82.98
2023-01-22T22:55:29.723Z,85.39
2023-01-22T23:00:26.435Z,86.06
2023-01-22T23:05:23.075Z,86.38
2023-01-22T23:10:28.397Z,86.54
2023-01-22T23:15:29.368Z,87.97
2023-01-22T23:20:26.152Z,88.51
2023-01-22T23:25:22.885Z,87.67
2023-01-22T23:30:19.863Z,87.65
2023-01-22T23:35:17.423Z,88.44
2023-01-22T23:40:14.109Z,88.97
2023-01-22T23:45:11.991Z,89.47
2023-01-22T23:50:09.690Z,89.78
2023-01-22T23:55:07.497Z,90.04
